Maizuru Bishamon — 7JHP — position and weather

sailwx.info

Track history (hours):
 
Tides and Currents Weather Stations Pressure Air Temp Water Temp Dewpoint Dewpoint Depression Visibility Wind Speed Wind Dir Waves Ship Positions

Maizuru Bishamon

Last reported at 2018-Feb-18 07:03 UTC. Time now 2018-Feb-20 06:08 UTC.
Position S 27°16' E 153°18'.

Length 229 m; draft 13.6 m.

Type: Cargo ship. MMSI: 432772000.

Date/timePositionNaut miles runAvg speedWind from/ knotsBaromVisibWave heightAir tempDewpointWater temp
2018-Feb-18 07:03S 27°16' E 153°18'0 0.0
2018-Feb-18 07:00S 27°16' E 153°18'0 0.0
2018-Feb-16 20:45S 27°16' E 153°18'0 0.0
2018-Feb-16 20:21S 27°16' E 153°18'0 0.0
2018-Feb-16 19:51S 27°16' E 153°18'0 0.0
2018-Feb-15 23:16S 27°16' E 153°18'5 5.5
2018-Feb-15 22:19S 27°19' E 153°12'4 8.7
2018-Feb-15 21:53S 27°22' E 153°10'1 0.1
2018-Feb-14 21:21S 27°23' E 153°10'0 0.0
2018-Feb-14 20:54S 27°23' E 153°10'0 0.0
2018-Feb-14 20:27S 27°23' E 153°10'0 0.0
2018-Feb-14 19:39S 27°23' E 153°10'0 0.0
2018-Feb-14 19:12S 27°23' E 153°10'0 0.0
2018-Feb-14 19:00S 27°23' E 153°10'0 0.0
2018-Feb-14 18:30S 27°23' E 153°10'0 0.0
2018-Feb-14 17:57S 27°23' E 153°10'0 0.0
2018-Feb-14 17:27S 27°23' E 153°10'0 0.0
2018-Feb-14 16:48S 27°23' E 153°10'0 0.0
2018-Feb-14 15:45S 27°23' E 153°10'0 0.0
2018-Feb-14 15:30S 27°23' E 153°10'0 0.0
2018-Feb-13 21:45S 27°23' E 153°10'0 0.0
2018-Feb-13 21:24S 27°23' E 153°10'0 0.0
2018-Feb-13 20:21S 27°23' E 153°10'0 0.0
2018-Feb-13 19:45S 27°23' E 153°10'0 0.0
2018-Feb-13 19:21S 27°23' E 153°10'0 0.0
2018-Feb-13 19:00S 27°23' E 153°10'0 0.0
2018-Feb-13 18:18S 27°23' E 153°10'0 0.5
2018-Feb-13 17:54S 27°23' E 153°09'1 2.9
2018-Feb-13 17:28S 27°22' E 153°10'510.1
2018-Feb-13 17:00S 27°18' E 153°13'612.6
2018-Feb-13 16:30S 27°15' E 153°19'612.1
2018-Feb-13 15:58S 27°09' E 153°21'612.1
2018-Feb-13 15:30S 27°04' E 153°18'20 6.4
2018-Feb-13 12:27S 26°44' E 153°15'1 0.8
2018-Feb-13 11:45S 26°44' E 153°15'0 0.0
2018-Feb-12 18:45S 26°44' E 153°15'0 0.0
2018-Feb-12 18:09S 26°44' E 153°15'0 0.0
2018-Feb-12 18:00S 26°44' E 153°15'0 0.0
2018-Feb-12 17:30S 26°44' E 153°15'0 0.0
2018-Feb-12 16:15S 26°44' E 153°15'0 0.0
2018-Feb-12 14:51S 26°44' E 153°15'0 0.0
2018-Feb-12 13:21S 26°44' E 153°15'0 0.0
2018-Feb-12 12:51S 26°44' E 153°15'0 0.0
2018-Feb-12 12:24S 26°44' E 153°15'0 0.0
2018-Feb-12 11:42S 26°44' E 153°15'0 0.0
2018-Feb-12 11:18S 26°44' E 153°15'0 0.0
2018-Feb-12 11:00S 26°44' E 153°15'0 0.0
2018-Feb-12 10:27S 26°44' E 153°15'0 0.0
2018-Feb-12 09:59S 26°44' E 153°15'0 0.0
2018-Feb-12 09:29S 26°44' E 153°15'0 0.0
2018-Feb-12 08:59S 26°44' E 153°15'0 0.0
2018-Feb-12 08:05S 26°44' E 153°15'0 0.0
2018-Feb-12 07:59S 26°44' E 153°15'0 0.0
2018-Feb-12 07:29S 26°44' E 153°15'0 0.0
2018-Feb-12 06:53S 26°44' E 153°15'0 0.0
2018-Feb-12 06:29S 26°44' E 153°15'0 0.0
2018-Feb-12 05:59S 26°44' E 153°15'0 0.0
2018-Feb-12 05:29S 26°44' E 153°15'0 0.1
2018-Feb-12 04:47S 26°44' E 153°15'0 0.0
2018-Feb-12 04:29S 26°44' E 153°15'0 0.0
2018-Feb-12 03:53S 26°44' E 153°15'0 0.0
2018-Feb-12 03:29S 26°44' E 153°15'0 0.1
2018-Feb-12 02:29S 26°44' E 153°15'0 0.0
2018-Feb-11 21:29S 26°44' E 153°15'0 0.0
2018-Feb-11 20:56S 26°44' E 153°15'0 0.0
2018-Feb-11 20:29S 26°44' E 153°15'0 0.1
2018-Feb-11 19:59S 26°44' E 153°15'0 0.0
2018-Feb-11 19:29S 26°44' E 153°15'0 0.0
2018-Feb-11 18:05S 26°44' E 153°15'0 0.1
2018-Feb-11 17:53S 26°44' E 153°15'0 0.0
2018-Feb-11 16:26S 26°44' E 153°15'0 0.0
2018-Feb-11 15:50S 26°44' E 153°15'0 0.1
2018-Feb-11 15:29S 26°44' E 153°15'0 0.1
2018-Feb-11 14:53S 26°44' E 153°15'0 0.0
2018-Feb-11 13:23S 26°43' E 153°15'0 0.0
2018-Feb-11 12:56S 26°44' E 153°15'0 0.1
2018-Feb-11 12:29S 26°43' E 153°15'0 0.0
2018-Feb-11 11:56S 26°43' E 153°15'0 0.0
2018-Feb-11 11:29S 26°43' E 153°15'0 0.1
2018-Feb-11 10:53S 26°43' E 153°15'0 0.3
2018-Feb-11 10:29S 26°43' E 153°15'0 0.1
2018-Feb-11 05:44S 26°44' E 153°15'0 0.0
2018-Feb-11 05:17S 26°44' E 153°15'0 0.0
2018-Feb-11 04:50S 26°44' E 153°15'0 0.0
2018-Feb-11 04:29S 26°44' E 153°15'0 0.0
2018-Feb-11 03:59S 26°44' E 153°15'0 0.0
2018-Feb-11 03:20S 26°44' E 153°15'0 0.0
2018-Feb-11 02:59S 26°44' E 153°15'0 0.0
2018-Feb-11 02:17S 26°44' E 153°15'0 0.1
2018-Feb-11 01:59S 26°44' E 153°15'0 0.0
2018-Feb-11 01:17S 26°44' E 153°15'0 0.0
2018-Feb-11 00:59S 26°44' E 153°15'0 0.3
2018-Feb-11 00:23S 26°44' E 153°15'1 1.8
2018-Feb-11 00:01S 26°43' E 153°16'3 5.7
2018-Feb-10 23:30S 26°42' E 153°18'10110.8
2018-Feb-10 14:09S 25°06' E 153°54'312.5
2018-Feb-10 13:55S 25°04' E 153°55'1312.1
2018-Feb-10 12:52S 24°51' E 153°58'412.0
2018-Feb-10 12:30S 24°47' E 153°59'  
Track history (hours):
 
Tides and Currents Weather Stations Pressure Air Temp Water Temp Dewpoint Dewpoint Depression Visibility Wind Speed Wind Dir Waves Ship Positions

Maizuru Bishamon

Last reported at 2018-Feb-18 07:03 UTC. Time now 2018-Feb-20 06:08 UTC.
Position S 27°16' E 153°18'.

Length 229 m; draft 13.6 m.

Type: Cargo ship. MMSI: 432772000.

Date/timePositionNaut miles runAvg speedWind from/ knotsBaromVisibWave heightAir tempDewpointWater temp
2018-Feb-18 07:03S 27°16' E 153°18'0 0.0
2018-Feb-18 07:00S 27°16' E 153°18'0 0.0
2018-Feb-16 20:45S 27°16' E 153°18'0 0.0
2018-Feb-16 20:21S 27°16' E 153°18'0 0.0
2018-Feb-16 19:51S 27°16' E 153°18'0 0.0
2018-Feb-15 23:16S 27°16' E 153°18'5 5.5
2018-Feb-15 22:19S 27°19' E 153°12'4 8.7
2018-Feb-15 21:53S 27°22' E 153°10'1 0.1
2018-Feb-14 21:21S 27°23' E 153°10'0 0.0
2018-Feb-14 20:54S 27°23' E 153°10'0 0.0
2018-Feb-14 20:27S 27°23' E 153°10'0 0.0
2018-Feb-14 19:39S 27°23' E 153°10'0 0.0
2018-Feb-14 19:12S 27°23' E 153°10'0 0.0
2018-Feb-14 19:00S 27°23' E 153°10'0 0.0
2018-Feb-14 18:30S 27°23' E 153°10'0 0.0
2018-Feb-14 17:57S 27°23' E 153°10'0 0.0
2018-Feb-14 17:27S 27°23' E 153°10'0 0.0
2018-Feb-14 16:48S 27°23' E 153°10'0 0.0
2018-Feb-14 15:45S 27°23' E 153°10'0 0.0
2018-Feb-14 15:30S 27°23' E 153°10'0 0.0
2018-Feb-13 21:45S 27°23' E 153°10'0 0.0
2018-Feb-13 21:24S 27°23' E 153°10'0 0.0
2018-Feb-13 20:21S 27°23' E 153°10'0 0.0
2018-Feb-13 19:45S 27°23' E 153°10'0 0.0
2018-Feb-13 19:21S 27°23' E 153°10'0 0.0
2018-Feb-13 19:00S 27°23' E 153°10'0 0.0
2018-Feb-13 18:18S 27°23' E 153°10'0 0.5
2018-Feb-13 17:54S 27°23' E 153°09'1 2.9
2018-Feb-13 17:28S 27°22' E 153°10'510.1
2018-Feb-13 17:00S 27°18' E 153°13'612.6
2018-Feb-13 16:30S 27°15' E 153°19'612.1
2018-Feb-13 15:58S 27°09' E 153°21'612.1
2018-Feb-13 15:30S 27°04' E 153°18'20 6.4
2018-Feb-13 12:27S 26°44' E 153°15'1 0.8
2018-Feb-13 11:45S 26°44' E 153°15'0 0.0
2018-Feb-12 18:45S 26°44' E 153°15'0 0.0
2018-Feb-12 18:09S 26°44' E 153°15'0 0.0
2018-Feb-12 18:00S 26°44' E 153°15'0 0.0
2018-Feb-12 17:30S 26°44' E 153°15'0 0.0
2018-Feb-12 16:15S 26°44' E 153°15'0 0.0
2018-Feb-12 14:51S 26°44' E 153°15'0 0.0
2018-Feb-12 13:21S 26°44' E 153°15'0 0.0
2018-Feb-12 12:51S 26°44' E 153°15'0 0.0
2018-Feb-12 12:24S 26°44' E 153°15'0 0.0
2018-Feb-12 11:42S 26°44' E 153°15'0 0.0
2018-Feb-12 11:18S 26°44' E 153°15'0 0.0
2018-Feb-12 11:00S 26°44' E 153°15'0 0.0
2018-Feb-12 10:27S 26°44' E 153°15'0 0.0
2018-Feb-12 09:59S 26°44' E 153°15'0 0.0
2018-Feb-12 09:29S 26°44' E 153°15'0 0.0
2018-Feb-12 08:59S 26°44' E 153°15'0 0.0
2018-Feb-12 08:05S 26°44' E 153°15'0 0.0
2018-Feb-12 07:59S 26°44' E 153°15'0 0.0
2018-Feb-12 07:29S 26°44' E 153°15'0 0.0
2018-Feb-12 06:53S 26°44' E 153°15'0 0.0
2018-Feb-12 06:29S 26°44' E 153°15'0 0.0
2018-Feb-12 05:59S 26°44' E 153°15'0 0.0
2018-Feb-12 05:29S 26°44' E 153°15'0 0.1
2018-Feb-12 04:47S 26°44' E 153°15'0 0.0
2018-Feb-12 04:29S 26°44' E 153°15'0 0.0
2018-Feb-12 03:53S 26°44' E 153°15'0 0.0
2018-Feb-12 03:29S 26°44' E 153°15'0 0.1
2018-Feb-12 02:29S 26°44' E 153°15'0 0.0
2018-Feb-11 21:29S 26°44' E 153°15'0 0.0
2018-Feb-11 20:56S 26°44' E 153°15'0 0.0
2018-Feb-11 20:29S 26°44' E 153°15'0 0.1
2018-Feb-11 19:59S 26°44' E 153°15'0 0.0
2018-Feb-11 19:29S 26°44' E 153°15'0 0.0
2018-Feb-11 18:05S 26°44' E 153°15'0 0.1
2018-Feb-11 17:53S 26°44' E 153°15'0 0.0
2018-Feb-11 16:26S 26°44' E 153°15'0 0.0
2018-Feb-11 15:50S 26°44' E 153°15'0 0.1
2018-Feb-11 15:29S 26°44' E 153°15'0 0.1
2018-Feb-11 14:53S 26°44' E 153°15'0 0.0
2018-Feb-11 13:23S 26°43' E 153°15'0 0.0
2018-Feb-11 12:56S 26°44' E 153°15'0 0.1
2018-Feb-11 12:29S 26°43' E 153°15'0 0.0
2018-Feb-11 11:56S 26°43' E 153°15'0 0.0
2018-Feb-11 11:29S 26°43' E 153°15'0 0.1
2018-Feb-11 10:53S 26°43' E 153°15'0 0.3
2018-Feb-11 10:29S 26°43' E 153°15'0 0.1
2018-Feb-11 05:44S 26°44' E 153°15'0 0.0
2018-Feb-11 05:17S 26°44' E 153°15'0 0.0
2018-Feb-11 04:50S 26°44' E 153°15'0 0.0
2018-Feb-11 04:29S 26°44' E 153°15'0 0.0
2018-Feb-11 03:59S 26°44' E 153°15'0 0.0
2018-Feb-11 03:20S 26°44' E 153°15'0 0.0
2018-Feb-11 02:59S 26°44' E 153°15'0 0.0
2018-Feb-11 02:17S 26°44' E 153°15'0 0.1
2018-Feb-11 01:59S 26°44' E 153°15'0 0.0
2018-Feb-11 01:17S 26°44' E 153°15'0 0.0
2018-Feb-11 00:59S 26°44' E 153°15'0 0.3
2018-Feb-11 00:23S 26°44' E 153°15'1 1.8
2018-Feb-11 00:01S 26°43' E 153°16'3 5.7
2018-Feb-10 23:30S 26°42' E 153°18'10110.8
2018-Feb-10 14:09S 25°06' E 153°54'312.5
2018-Feb-10 13:55S 25°04' E 153°55'1312.1
2018-Feb-10 12:52S 24°51' E 153°58'412.0
2018-Feb-10 12:30S 24°47' E 153°59'  

Dump ship's entire track history